VOZ897 YMML-YSSY
Flight info
| Callsign | VOZ897 |
|---|---|
| Flight time | 1h 4m |
| Altitude | 39000 |
| Route | DOSEL Y59 RIVET |
| Aircraft | B738/M-SAE3DGHIM1RWZ/LB1 |
Departure
| Time | 2026-05-07 11:28 |
|---|---|
| Airport | Melbourne Airport (YMML) |
Arrival
| Time | 2026-05-07 12:32 |
|---|---|
| Airport | Sydney Kingsford Smith International Airport (YSSY) |
| Time | Latitude | Longitude | Altitude | Speed | Heading |
|---|---|---|---|---|---|
| 2026-05-07 11:05 | -37.67070 | 144.84625 | 389 ft | 0 kts | 172° |
| 2026-05-07 11:17 | -37.67060 | 144.84623 | 389 ft | 4 kts | 171° |
| 2026-05-07 11:17 | -37.67033 | 144.84617 | 389 ft | 4 kts | 172° |
| 2026-05-07 11:17 | -37.67010 | 144.84617 | 390 ft | 4 kts | 221° |
| 2026-05-07 11:18 | -37.67006 | 144.84622 | 390 ft | 3 kts | 261° |
| 2026-05-07 11:18 | -37.67011 | 144.84595 | 390 ft | 4 kts | 259° |
| 2026-05-07 11:18 | -37.67014 | 144.84562 | 389 ft | 3 kts | 266° |
| 2026-05-07 11:18 | -37.67014 | 144.84559 | 389 ft | 1 kts | 266° |
| 2026-05-07 11:23 | -37.67015 | 144.84537 | 389 ft | 7 kts | 266° |
| 2026-05-07 11:23 | -37.67035 | 144.84443 | 387 ft | 15 kts | 244° |
| 2026-05-07 11:23 | -37.67054 | 144.84289 | 385 ft | 19 kts | 282° |
| 2026-05-07 11:23 | -37.66943 | 144.84221 | 386 ft | 19 kts | 352° |
| 2026-05-07 11:24 | -37.66806 | 144.84195 | 391 ft | 20 kts | 352° |
| 2026-05-07 11:24 | -37.66670 | 144.84170 | 394 ft | 19 kts | 351° |
| 2026-05-07 11:24 | -37.66539 | 144.84145 | 402 ft | 19 kts | 352° |
| 2026-05-07 11:24 | -37.66417 | 144.84129 | 407 ft | 15 kts | 12° |
| 2026-05-07 11:25 | -37.66347 | 144.84229 | 409 ft | 16 kts | 77° |
| 2026-05-07 11:25 | -37.66351 | 144.84328 | 408 ft | 19 kts | 98° |
| 2026-05-07 11:25 | -37.66370 | 144.84564 | 409 ft | 20 kts | 94° |
| 2026-05-07 11:25 | -37.66377 | 144.84679 | 410 ft | 18 kts | 97° |
| 2026-05-07 11:26 | -37.66366 | 144.84764 | 408 ft | 7 kts | 31° |
| 2026-05-07 11:26 | -37.66306 | 144.84789 | 409 ft | 7 kts | 5° |
| 2026-05-07 11:26 | -37.66260 | 144.84794 | 411 ft | 7 kts | 5° |
| 2026-05-07 11:26 | -37.66229 | 144.84789 | 408 ft | 7 kts | 331° |
| 2026-05-07 11:27 | -37.66226 | 144.84781 | 409 ft | 1 kts | 285° |
| 2026-05-07 11:27 | -37.66218 | 144.84677 | 412 ft | 39 kts | 275° |
| 2026-05-07 11:27 | -37.66181 | 144.84009 | 412 ft | 110 kts | 274° |
| 2026-05-07 11:27 | -37.66117 | 144.82864 | 732 ft | 135 kts | 273° |
| 2026-05-07 11:28 | -37.66057 | 144.81705 | 1533 ft | 134 kts | 269° |
| 2026-05-07 11:28 | -37.65982 | 144.80479 | 2044 ft | 154 kts | 270° |
| 2026-05-07 11:28 | -37.65897 | 144.79014 | 2309 ft | 178 kts | 270° |
| 2026-05-07 11:28 | -37.65801 | 144.77368 | 2469 ft | 196 kts | 270° |
| 2026-05-07 11:29 | -37.65698 | 144.75601 | 2694 ft | 206 kts | 269° |
| 2026-05-07 11:29 | -37.65592 | 144.73794 | 3088 ft | 206 kts | 269° |
| 2026-05-07 11:29 | -37.65488 | 144.71992 | 3438 ft | 209 kts | 269° |
| 2026-05-07 11:29 | -37.65382 | 144.70131 | 3655 ft | 219 kts | 269° |
| 2026-05-07 11:30 | -37.65142 | 144.68179 | 3912 ft | 235 kts | 284° |
| 2026-05-07 11:30 | -37.64298 | 144.66362 | 4461 ft | 246 kts | 301° |
| 2026-05-07 11:30 | -37.62998 | 144.64886 | 4972 ft | 260 kts | 322° |
| 2026-05-07 11:30 | -37.61298 | 144.64013 | 5372 ft | 272 kts | 335° |
| 2026-05-07 11:31 | -37.59465 | 144.63337 | 5728 ft | 277 kts | 337° |
| 2026-05-07 11:31 | -37.57599 | 144.62673 | 6122 ft | 279 kts | 338° |
| 2026-05-07 11:31 | -37.55668 | 144.62206 | 6511 ft | 289 kts | 356° |
| 2026-05-07 11:31 | -37.53691 | 144.62832 | 6885 ft | 299 kts | 27° |
| 2026-05-07 11:32 | -37.50881 | 144.66674 | 7628 ft | 304 kts | 53° |
| 2026-05-07 11:32 | -37.49623 | 144.68831 | 7970 ft | 306 kts | 53° |
| 2026-05-07 11:32 | -37.48354 | 144.70987 | 8332 ft | 307 kts | 53° |
| 2026-05-07 11:33 | -37.47091 | 144.73168 | 8686 ft | 309 kts | 56° |
| 2026-05-07 11:33 | -37.45964 | 144.75484 | 9010 ft | 311 kts | 60° |
| 2026-05-07 11:33 | -37.44895 | 144.77860 | 9383 ft | 312 kts | 60° |
| 2026-05-07 11:33 | -37.43842 | 144.80232 | 9702 ft | 314 kts | 60° |
| 2026-05-07 11:34 | -37.42767 | 144.82642 | 10033 ft | 316 kts | 60° |
| 2026-05-07 11:34 | -37.41670 | 144.85079 | 10160 ft | 324 kts | 60° |
| 2026-05-07 11:34 | -37.40552 | 144.87544 | 10235 ft | 332 kts | 60° |
| 2026-05-07 11:34 | -37.39389 | 144.90092 | 10294 ft | 340 kts | 60° |
| 2026-05-07 11:35 | -37.38200 | 144.92687 | 10350 ft | 346 kts | 60° |
| 2026-05-07 11:35 | -37.36983 | 144.95335 | 10401 ft | 351 kts | 60° |
| 2026-05-07 11:35 | -37.35750 | 144.98012 | 10470 ft | 353 kts | 60° |
| 2026-05-07 11:35 | -37.34512 | 145.00697 | 10565 ft | 355 kts | 60° |
| 2026-05-07 11:36 | -37.33286 | 145.03354 | 10709 ft | 357 kts | 60° |
| 2026-05-07 11:36 | -37.32031 | 145.06069 | 10871 ft | 359 kts | 60° |
| 2026-05-07 11:36 | -37.30773 | 145.08790 | 11105 ft | 360 kts | 60° |
| 2026-05-07 11:36 | -37.29510 | 145.11517 | 11292 ft | 362 kts | 60° |
| 2026-05-07 11:37 | -37.28243 | 145.14253 | 11480 ft | 363 kts | 60° |
| 2026-05-07 11:37 | -37.26966 | 145.17007 | 11675 ft | 365 kts | 60° |
| 2026-05-07 11:37 | -37.25697 | 145.19742 | 11859 ft | 367 kts | 60° |
| 2026-05-07 11:37 | -37.24407 | 145.22519 | 12063 ft | 368 kts | 60° |
| 2026-05-07 11:38 | -37.23113 | 145.25303 | 12273 ft | 370 kts | 60° |
| 2026-05-07 11:38 | -37.21813 | 145.28098 | 12471 ft | 372 kts | 60° |
| 2026-05-07 11:38 | -37.20505 | 145.30910 | 12661 ft | 373 kts | 60° |
| 2026-05-07 11:38 | -37.19192 | 145.33728 | 12858 ft | 375 kts | 60° |
| 2026-05-07 11:39 | -37.17887 | 145.36526 | 13062 ft | 376 kts | 60° |
| 2026-05-07 11:39 | -37.16556 | 145.39372 | 13260 ft | 377 kts | 59° |
| 2026-05-07 11:39 | -37.15126 | 145.42141 | 13462 ft | 379 kts | 56° |
| 2026-05-07 11:39 | -37.13588 | 145.44851 | 13677 ft | 380 kts | 54° |
| 2026-05-07 11:40 | -37.12040 | 145.47492 | 14248 ft | 380 kts | 53° |
| 2026-05-07 11:40 | -37.10444 | 145.50200 | 14894 ft | 389 kts | 53° |
| 2026-05-07 11:40 | -37.08830 | 145.52952 | 15671 ft | 393 kts | 54° |
| 2026-05-07 11:40 | -37.07208 | 145.55733 | 16489 ft | 397 kts | 54° |
| 2026-05-07 11:41 | -37.05570 | 145.58556 | 17267 ft | 401 kts | 54° |
| 2026-05-07 11:41 | -37.03940 | 145.61376 | 17998 ft | 407 kts | 54° |
| 2026-05-07 11:41 | -37.02260 | 145.64286 | 18717 ft | 412 kts | 54° |
| 2026-05-07 11:41 | -37.00574 | 145.67208 | 19379 ft | 416 kts | 54° |
| 2026-05-07 11:42 | -36.98870 | 145.70160 | 20047 ft | 420 kts | 53° |
| 2026-05-07 11:42 | -36.97151 | 145.73136 | 20688 ft | 424 kts | 53° |
| 2026-05-07 11:42 | -36.95428 | 145.76117 | 21339 ft | 428 kts | 53° |
| 2026-05-07 11:42 | -36.93670 | 145.79155 | 21979 ft | 433 kts | 53° |
| 2026-05-07 11:43 | -36.91892 | 145.82226 | 22619 ft | 437 kts | 53° |
| 2026-05-07 11:43 | -36.90097 | 145.85322 | 23217 ft | 442 kts | 53° |
| 2026-05-07 11:43 | -36.88285 | 145.88445 | 23819 ft | 446 kts | 53° |
| 2026-05-07 11:43 | -36.86476 | 145.91559 | 24321 ft | 449 kts | 52° |
| 2026-05-07 11:44 | -36.84628 | 145.94738 | 24821 ft | 453 kts | 52° |
| 2026-05-07 11:44 | -36.82770 | 145.97931 | 25313 ft | 457 kts | 52° |
| 2026-05-07 11:44 | -36.80889 | 146.01161 | 25763 ft | 461 kts | 52° |
| 2026-05-07 11:44 | -36.78990 | 146.04419 | 26241 ft | 465 kts | 52° |
| 2026-05-07 11:45 | -36.77079 | 146.07693 | 26722 ft | 468 kts | 52° |
| 2026-05-07 11:45 | -36.75153 | 146.10990 | 27173 ft | 471 kts | 51° |
| 2026-05-07 11:45 | -36.73227 | 146.14285 | 27604 ft | 476 kts | 51° |
| 2026-05-07 11:45 | -36.71259 | 146.17648 | 28041 ft | 479 kts | 51° |
| 2026-05-07 11:46 | -36.69314 | 146.20968 | 28474 ft | 482 kts | 51° |
| 2026-05-07 11:46 | -36.67324 | 146.24361 | 28883 ft | 486 kts | 51° |
| 2026-05-07 11:46 | -36.65316 | 146.27782 | 29277 ft | 490 kts | 51° |
| 2026-05-07 11:46 | -36.63295 | 146.31221 | 29683 ft | 493 kts | 51° |
| 2026-05-07 11:47 | -36.61261 | 146.34680 | 30064 ft | 497 kts | 51° |
| 2026-05-07 11:47 | -36.59207 | 146.38169 | 30395 ft | 500 kts | 51° |
| 2026-05-07 11:47 | -36.57165 | 146.41633 | 30700 ft | 503 kts | 51° |
| 2026-05-07 11:47 | -36.55061 | 146.45201 | 31047 ft | 505 kts | 51° |
| 2026-05-07 11:48 | -36.52998 | 146.48696 | 31389 ft | 507 kts | 51° |
| 2026-05-07 11:48 | -36.50899 | 146.52248 | 31691 ft | 510 kts | 51° |
| 2026-05-07 11:48 | -36.48795 | 146.55803 | 31993 ft | 512 kts | 51° |
| 2026-05-07 11:48 | -36.46683 | 146.59369 | 32298 ft | 514 kts | 51° |
| 2026-05-07 11:49 | -36.44552 | 146.62963 | 32609 ft | 515 kts | 51° |
| 2026-05-07 11:49 | -36.42418 | 146.66557 | 32911 ft | 517 kts | 51° |
| 2026-05-07 11:49 | -36.40309 | 146.70107 | 33312 ft | 516 kts | 51° |
| 2026-05-07 11:49 | -36.38180 | 146.73687 | 33815 ft | 512 kts | 52° |
| 2026-05-07 11:50 | -36.36053 | 146.77260 | 34276 ft | 510 kts | 52° |
| 2026-05-07 11:50 | -36.33946 | 146.80794 | 34588 ft | 510 kts | 52° |
| 2026-05-07 11:50 | -36.31836 | 146.84330 | 34888 ft | 510 kts | 52° |
| 2026-05-07 11:50 | -36.29750 | 146.87822 | 35242 ft | 508 kts | 52° |
| 2026-05-07 11:51 | -36.27641 | 146.91349 | 35640 ft | 505 kts | 51° |
| 2026-05-07 11:51 | -36.25549 | 146.94846 | 36012 ft | 503 kts | 51° |
| 2026-05-07 11:51 | -36.23460 | 146.98333 | 36342 ft | 502 kts | 51° |
| 2026-05-07 11:51 | -36.21398 | 147.01771 | 36669 ft | 501 kts | 51° |
| 2026-05-07 11:52 | -36.19317 | 147.05239 | 37026 ft | 499 kts | 51° |
| 2026-05-07 11:52 | -36.17253 | 147.08673 | 37385 ft | 497 kts | 51° |
| 2026-05-07 11:52 | -36.15184 | 147.12111 | 37727 ft | 495 kts | 51° |
| 2026-05-07 11:52 | -36.13130 | 147.15523 | 38076 ft | 493 kts | 51° |
| 2026-05-07 11:53 | -36.11108 | 147.18878 | 38426 ft | 491 kts | 51° |
| 2026-05-07 11:53 | -36.09066 | 147.22264 | 38741 ft | 489 kts | 51° |
| 2026-05-07 11:53 | -36.07030 | 147.25636 | 39016 ft | 488 kts | 51° |
| 2026-05-07 11:53 | -36.04995 | 147.29005 | 39223 ft | 488 kts | 51° |
| 2026-05-07 11:54 | -36.02952 | 147.32382 | 39248 ft | 489 kts | 51° |
| 2026-05-07 11:54 | -35.98908 | 147.39060 | 39251 ft | 486 kts | 51° |
| 2026-05-07 11:55 | -35.94851 | 147.45747 | 39245 ft | 483 kts | 51° |
| 2026-05-07 11:55 | -35.90845 | 147.52336 | 39256 ft | 481 kts | 51° |
| 2026-05-07 11:56 | -35.86828 | 147.58935 | 39269 ft | 480 kts | 51° |
| 2026-05-07 11:56 | -35.82801 | 147.65532 | 39258 ft | 480 kts | 51° |
| 2026-05-07 11:57 | -35.78774 | 147.72110 | 39268 ft | 481 kts | 51° |
| 2026-05-07 11:57 | -35.74751 | 147.78671 | 39265 ft | 482 kts | 51° |
| 2026-05-07 11:58 | -35.70685 | 147.85292 | 39262 ft | 484 kts | 51° |
| 2026-05-07 11:58 | -35.66641 | 147.91866 | 39267 ft | 485 kts | 51° |
| 2026-05-07 11:59 | -35.62555 | 147.98496 | 39269 ft | 486 kts | 51° |
| 2026-05-07 11:59 | -35.58480 | 148.05097 | 39266 ft | 487 kts | 51° |
| 2026-05-07 12:00 | -35.54377 | 148.11728 | 39257 ft | 487 kts | 51° |
| 2026-05-07 12:00 | -35.50266 | 148.18363 | 39261 ft | 487 kts | 51° |
| 2026-05-07 12:01 | -35.46151 | 148.24992 | 39265 ft | 488 kts | 51° |
| 2026-05-07 12:01 | -35.42057 | 148.31570 | 39266 ft | 488 kts | 51° |
| 2026-05-07 12:02 | -35.37920 | 148.38191 | 39252 ft | 488 kts | 50° |
| 2026-05-07 12:02 | -35.33787 | 148.44792 | 39255 ft | 488 kts | 50° |
| 2026-05-07 12:03 | -35.29669 | 148.51360 | 39251 ft | 488 kts | 50° |
| 2026-05-07 12:03 | -35.25518 | 148.57970 | 39247 ft | 489 kts | 50° |
| 2026-05-07 12:04 | -35.21388 | 148.64534 | 39243 ft | 489 kts | 50° |
| 2026-05-07 12:04 | -35.17229 | 148.71133 | 39250 ft | 490 kts | 50° |
| 2026-05-07 12:05 | -35.13049 | 148.77751 | 39236 ft | 492 kts | 50° |
| 2026-05-07 12:05 | -35.08876 | 148.84347 | 39249 ft | 494 kts | 49° |
| 2026-05-07 12:06 | -35.04656 | 148.91004 | 39236 ft | 496 kts | 49° |
| 2026-05-07 12:06 | -35.00396 | 148.97709 | 38744 ft | 505 kts | 49° |
| 2026-05-07 12:06 | -34.98273 | 149.01045 | 38114 ft | 504 kts | 49° |
| 2026-05-07 12:07 | -34.96127 | 149.04417 | 37524 ft | 502 kts | 50° |
| 2026-05-07 12:07 | -34.93979 | 149.07789 | 36925 ft | 501 kts | 50° |
| 2026-05-07 12:07 | -34.91840 | 149.11145 | 36326 ft | 501 kts | 51° |
| 2026-05-07 12:07 | -34.89699 | 149.14497 | 35684 ft | 502 kts | 51° |
| 2026-05-07 12:08 | -34.87547 | 149.17865 | 35016 ft | 503 kts | 52° |
| 2026-05-07 12:08 | -34.85418 | 149.21193 | 34324 ft | 506 kts | 52° |
| 2026-05-07 12:08 | -34.83243 | 149.24592 | 33503 ft | 508 kts | 52° |
| 2026-05-07 12:08 | -34.81801 | 149.26844 | 32985 ft | 509 kts | 52° |
| 2026-05-07 12:09 | -34.78873 | 149.31412 | 32050 ft | 509 kts | 52° |
| 2026-05-07 12:09 | -34.76722 | 149.34763 | 31535 ft | 506 kts | 52° |
| 2026-05-07 12:09 | -34.74571 | 149.38135 | 30998 ft | 502 kts | 54° |
| 2026-05-07 12:09 | -34.72680 | 149.41684 | 30350 ft | 500 kts | 63° |
| 2026-05-07 12:10 | -34.71036 | 149.45422 | 29682 ft | 498 kts | 65° |
| 2026-05-07 12:10 | -34.69453 | 149.49157 | 29083 ft | 494 kts | 65° |
| 2026-05-07 12:10 | -34.67913 | 149.52809 | 28528 ft | 490 kts | 65° |
| 2026-05-07 12:10 | -34.66351 | 149.56475 | 27982 ft | 486 kts | 65° |
| 2026-05-07 12:11 | -34.64790 | 149.60095 | 27450 ft | 482 kts | 65° |
| 2026-05-07 12:11 | -34.63230 | 149.63677 | 26918 ft | 478 kts | 64° |
| 2026-05-07 12:11 | -34.61669 | 149.67241 | 26392 ft | 475 kts | 64° |
| 2026-05-07 12:11 | -34.60121 | 149.70765 | 25876 ft | 472 kts | 64° |
| 2026-05-07 12:12 | -34.59098 | 149.73091 | 25520 ft | 470 kts | 64° |
| 2026-05-07 12:12 | -34.57055 | 149.77736 | 24805 ft | 467 kts | 64° |
| 2026-05-07 12:12 | -34.55525 | 149.81214 | 24264 ft | 465 kts | 64° |
| 2026-05-07 12:12 | -34.54515 | 149.83509 | 23917 ft | 464 kts | 64° |
| 2026-05-07 12:13 | -34.52482 | 149.88125 | 23120 ft | 460 kts | 64° |
| 2026-05-07 12:13 | -34.51485 | 149.90386 | 22684 ft | 459 kts | 64° |
| 2026-05-07 12:13 | -34.49989 | 149.93772 | 22082 ft | 457 kts | 64° |
| 2026-05-07 12:13 | -34.48496 | 149.97148 | 21612 ft | 451 kts | 65° |
| 2026-05-07 12:14 | -34.47014 | 150.00494 | 21109 ft | 447 kts | 65° |
| 2026-05-07 12:14 | -34.45544 | 150.03811 | 20597 ft | 443 kts | 65° |
| 2026-05-07 12:14 | -34.44110 | 150.07049 | 20094 ft | 439 kts | 65° |
| 2026-05-07 12:14 | -34.42663 | 150.10311 | 19575 ft | 436 kts | 65° |
| 2026-05-07 12:15 | -34.41231 | 150.13538 | 19040 ft | 434 kts | 65° |
| 2026-05-07 12:15 | -34.39801 | 150.16757 | 18533 ft | 432 kts | 65° |
| 2026-05-07 12:15 | -34.38379 | 150.19954 | 17970 ft | 428 kts | 66° |
| 2026-05-07 12:15 | -34.36517 | 150.24139 | 17268 ft | 423 kts | 66° |
| 2026-05-07 12:16 | -34.35591 | 150.26217 | 16932 ft | 420 kts | 66° |
| 2026-05-07 12:16 | -34.34206 | 150.29324 | 16431 ft | 416 kts | 66° |
| 2026-05-07 12:16 | -34.32836 | 150.32393 | 15883 ft | 411 kts | 67° |
| 2026-05-07 12:16 | -34.31490 | 150.35414 | 15444 ft | 405 kts | 66° |
| 2026-05-07 12:17 | -34.30153 | 150.38406 | 14987 ft | 401 kts | 67° |
| 2026-05-07 12:17 | -34.28830 | 150.41365 | 14503 ft | 398 kts | 67° |
| 2026-05-07 12:17 | -34.27532 | 150.44262 | 14054 ft | 394 kts | 67° |
| 2026-05-07 12:17 | -34.26226 | 150.47177 | 13583 ft | 390 kts | 67° |
| 2026-05-07 12:18 | -34.24937 | 150.50053 | 13103 ft | 386 kts | 67° |
| 2026-05-07 12:18 | -34.23663 | 150.52898 | 12621 ft | 382 kts | 66° |
| 2026-05-07 12:18 | -34.22419 | 150.55677 | 12160 ft | 378 kts | 66° |
| 2026-05-07 12:18 | -34.21174 | 150.58455 | 11703 ft | 375 kts | 66° |
| 2026-05-07 12:19 | -34.19933 | 150.61220 | 11293 ft | 370 kts | 65° |
| 2026-05-07 12:19 | -34.18706 | 150.63950 | 10799 ft | 367 kts | 65° |
| 2026-05-07 12:19 | -34.17490 | 150.66654 | 10435 ft | 362 kts | 64° |
| 2026-05-07 12:19 | -34.16309 | 150.69275 | 10303 ft | 349 kts | 64° |
| 2026-05-07 12:20 | -34.15183 | 150.71774 | 10167 ft | 337 kts | 64° |
| 2026-05-07 12:20 | -34.14078 | 150.74230 | 10033 ft | 327 kts | 64° |
| 2026-05-07 12:20 | -34.13012 | 150.76595 | 9987 ft | 314 kts | 64° |
| 2026-05-07 12:20 | -34.11981 | 150.78883 | 9663 ft | 310 kts | 64° |
| 2026-05-07 12:21 | -34.10940 | 150.81193 | 9233 ft | 312 kts | 64° |
| 2026-05-07 12:21 | -34.09904 | 150.83490 | 8902 ft | 310 kts | 64° |
| 2026-05-07 12:21 | -34.08892 | 150.85736 | 8647 ft | 305 kts | 64° |
| 2026-05-07 12:21 | -34.07885 | 150.87973 | 8398 ft | 301 kts | 64° |
| 2026-05-07 12:22 | -34.06894 | 150.90176 | 8168 ft | 296 kts | 64° |
| 2026-05-07 12:22 | -34.05919 | 150.92340 | 7935 ft | 292 kts | 64° |
| 2026-05-07 12:22 | -34.04953 | 150.94482 | 7701 ft | 288 kts | 64° |
| 2026-05-07 12:22 | -34.04002 | 150.96590 | 7479 ft | 284 kts | 64° |
| 2026-05-07 12:23 | -34.02914 | 150.98569 | 7227 ft | 285 kts | 45° |
| 2026-05-07 12:23 | -34.01264 | 150.99804 | 7032 ft | 285 kts | 16° |
| 2026-05-07 12:23 | -33.99314 | 151.00065 | 6838 ft | 282 kts | 353° |
| 2026-05-07 12:23 | -33.97355 | 150.99794 | 6627 ft | 282 kts | 349° |
| 2026-05-07 12:24 | -33.95411 | 150.99465 | 6377 ft | 281 kts | 349° |
| 2026-05-07 12:24 | -33.93495 | 150.99141 | 6133 ft | 281 kts | 349° |
| 2026-05-07 12:24 | -33.91558 | 150.98821 | 5908 ft | 280 kts | 349° |
| 2026-05-07 12:24 | -33.89627 | 150.98511 | 5689 ft | 280 kts | 349° |
| 2026-05-07 12:25 | -33.87696 | 150.98207 | 5462 ft | 279 kts | 349° |
| 2026-05-07 12:25 | -33.85764 | 150.97908 | 5248 ft | 279 kts | 349° |
| 2026-05-07 12:25 | -33.83838 | 150.97612 | 5029 ft | 279 kts | 348° |
| 2026-05-07 12:25 | -33.81930 | 150.97317 | 4794 ft | 279 kts | 348° |
| 2026-05-07 12:26 | -33.79984 | 150.97214 | 4560 ft | 285 kts | 6° |
| 2026-05-07 12:26 | -33.78166 | 150.98131 | 4330 ft | 285 kts | 39° |
| 2026-05-07 12:26 | -33.76954 | 150.99957 | 4123 ft | 276 kts | 69° |
| 2026-05-07 12:26 | -33.76423 | 151.02126 | 3926 ft | 266 kts | 84° |
| 2026-05-07 12:27 | -33.76064 | 151.04281 | 3711 ft | 264 kts | 84° |
| 2026-05-07 12:27 | -33.75702 | 151.06439 | 3494 ft | 262 kts | 84° |
| 2026-05-07 12:27 | -33.75334 | 151.08567 | 3311 ft | 254 kts | 86° |
| 2026-05-07 12:27 | -33.75389 | 151.10571 | 3103 ft | 228 kts | 118° |
| 2026-05-07 12:28 | -33.76212 | 151.11967 | 3004 ft | 186 kts | 159° |
| 2026-05-07 12:28 | -33.77299 | 151.12579 | 2980 ft | 164 kts | 167° |
| 2026-05-07 12:28 | -33.78287 | 151.13043 | 2956 ft | 148 kts | 173° |
| 2026-05-07 12:28 | -33.79240 | 151.13450 | 2845 ft | 144 kts | 173° |
| 2026-05-07 12:29 | -33.80212 | 151.13793 | 2654 ft | 146 kts | 177° |
| 2026-05-07 12:29 | -33.81197 | 151.14083 | 2444 ft | 146 kts | 178° |
| 2026-05-07 12:29 | -33.82185 | 151.14352 | 2253 ft | 146 kts | 179° |
| 2026-05-07 12:29 | -33.83180 | 151.14614 | 2050 ft | 148 kts | 179° |
| 2026-05-07 12:30 | -33.84182 | 151.14877 | 1852 ft | 148 kts | 178° |
| 2026-05-07 12:30 | -33.85147 | 151.15131 | 1678 ft | 138 kts | 179° |
| 2026-05-07 12:30 | -33.86071 | 151.15371 | 1467 ft | 137 kts | 178° |
| 2026-05-07 12:30 | -33.87010 | 151.15612 | 1273 ft | 137 kts | 177° |
| 2026-05-07 12:31 | -33.87931 | 151.15855 | 1089 ft | 136 kts | 177° |
| 2026-05-07 12:31 | -33.88865 | 151.16103 | 869 ft | 139 kts | 178° |
| 2026-05-07 12:31 | -33.89836 | 151.16351 | 708 ft | 141 kts | 174° |
| 2026-05-07 12:31 | -33.90812 | 151.16614 | 517 ft | 149 kts | 175° |
| 2026-05-07 12:32 | -33.91828 | 151.16879 | 314 ft | 148 kts | 174° |
| 2026-05-07 12:32 | -33.92843 | 151.17137 | 110 ft | 147 kts | 175° |
| 2026-05-07 12:32 | -33.93790 | 151.17387 | 27 ft | 129 kts | 172° |
| 2026-05-07 12:32 | -33.94318 | 151.17545 | 29 ft | 44 kts | 154° |
| 2026-05-07 12:33 | -33.94443 | 151.17643 | 29 ft | 2 kts | 142° |
| 2026-05-07 12:33 | -33.94460 | 151.17659 | 29 ft | 3 kts | 142° |
| 2026-05-07 12:33 | -33.94479 | 151.17677 | 29 ft | 2 kts | 141° |
| 2026-05-07 12:34 | -33.94491 | 151.17689 | 29 ft | 4 kts | 141° |
| 2026-05-07 12:34 | -33.94512 | 151.17730 | 29 ft | 9 kts | 96° |
| 2026-05-07 12:34 | -33.94430 | 151.17764 | 29 ft | 21 kts | 345° |
| 2026-05-07 12:34 | -33.94273 | 151.17715 | 29 ft | 24 kts | 345° |
| 2026-05-07 12:35 | -33.94116 | 151.17670 | 28 ft | 23 kts | 347° |
| 2026-05-07 12:35 | -33.93964 | 151.17627 | 28 ft | 22 kts | 348° |
| 2026-05-07 12:35 | -33.93862 | 151.17681 | 28 ft | 15 kts | 78° |
| 2026-05-07 12:35 | -33.93834 | 151.17801 | 29 ft | 15 kts | 74° |
| 2026-05-07 12:36 | -33.93807 | 151.17917 | 29 ft | 14 kts | 74° |
| 2026-05-07 12:36 | -33.93785 | 151.18004 | 29 ft | 8 kts | 66° |
| 2026-05-07 12:36 | -33.93769 | 151.18013 | 29 ft | 3 kts | 6° |
| 2026-05-07 12:36 | -33.93726 | 151.17989 | 29 ft | 8 kts | 325° |
| 2026-05-07 12:37 | -33.93703 | 151.17970 | 28 ft | 0 kts | 326° |